Petaluma, CA (94954)

5:03 PM PDT on September 02, 2015 (GMT -0700)
Sutter Street at East Washington Street | | Change Station
CLOSE
Current Station
Personal Weather Station
Location: Petaluma, CA
Elevation: 30 ft
Nearby Weather Stations

Elev 30 ft 38.25 °N, 122.62 °W | Updated 3 seconds ago

Mostly Cloudy
Mostly Cloudy
68.4 °F
Feels Like 68.4 °F
N
10.4
Wind Variable Wind from NE
Gusts 10.4 mph

Today
High -- | Low -- °F
--% Chance of Precip.
Yesterday
High -- | Low -- °F
Precip. -- in
6:40 AM 7:38 PM
Waning Gibbous, 76% visible
Pressure 29.92 in
Visibility 10.0 miles
Clouds Mostly Cloudy 1900 ft
Dew Point 60 °F
Humidity 75%
Rainfall 0.00 in
Snow Depth Not available.
UV 2 out of 12
Pollen 7.10 out of 12
Air Quality Not available.
Flu Activity Not available.
METAR KO69 022355Z AUTO 28013G19KT 10SM BKN019 21/14 A2992 RMK AO1
Pressure 29.92 in
Visibility 10.0 miles
Clouds Mostly Cloudy 1900 ft
Dew Point 60 °F
Humidity 75%
Rainfall 0.00 in
Snow Depth Not available.
UV 2 out of 12
Pollen 7.10 out of 12
Air Quality Not available.
Flu Activity Not available.
METAR KO69 022355Z AUTO 28013G19KT 10SM BKN019 21/14 A2992 RMK AO1

10-Day Weather Forecast

×

Almanac

Astronomy

Sep. 02, 2015 Rise Set
Actual Time
Civil Twilight
Nautical Twilight
Astronomical Twilight
Moon
Length of Visible Light
Length of Day
Tomorrow will be .
, % of the Moon is Illuminated

Today's Extremes

State Highs State Lows

Community

WunderPhotos

Upload Photos

1,851,846 photos uploaded!

WunderBlogs® & News

Nearby

Air Quality

  Air Quality AQ Index Pollutant
Not available.

Snow Depth

Station Depth Elevation

Earthquake Activity

City Distance Mag. Time & Date
Minimum magnitude displayed is 2.5.

Coastal Water Temperatures

Place Temperature

Stations

Nearby Weather Stations

Station Location Temp. Windchill Dew Point Humidity Wind Precip. Elev Updated Type